Nearby METAR Reports

 

KMTN - Baltimore/Martin, Maryland, USA
Distance from station: SSE 8mi, 13km
Updated: Sat, 01-Nov-2014 8:45am EDT
Rain, Overcast
Rain, Overcast
 Wind from NNE
Wind: NNE 15 mph , 24 km/h
Temperature: 48°F , 9°C
Wind Chill: 42°F , 6°C
Dew Point: 45°F , 7°C
Humidity: 87%
Barometer: 29.82 inHg , 1009.8 hPa
Summary: Rain
Clouds: Overcast
Visibility: 3 miles , 5 km
Cloud details: Mostly cloudy 800 ft
Overcast 1700 ft
2014/11/01 12:45 KMTN 011245Z 03013KT 3SM RA BKN008 OVC017 09/07 A2982
KDMH - Baltimore/Dwntwn, Maryland, USA
Distance from station: SW 12mi, 19km
Updated: Sat, 01-Nov-2014 7:54am EDT

 
Temperature: 50°F , 10°C
Dew Point: 43°F , 6°C
Humidity: 76%
Barometer: 29.79 inHg , 1008.8 hPa
2014/11/01 11:54 KDMH 011154Z AUTO 10/06 A2979 RMK AO1 SLP089 P0001 60001 70001 T01000061 10100 20094 52010
 
KBWI - Balto/Wash Intl, Maryland, USA
Distance from station: SSW 20mi, 33km
Updated: Sat, 01-Nov-2014 7:54am EDT
Light rain, Overcast
Light rain, Overcast
 Wind from N
Wind: N 12 mph , 19 km/h, Gust: 18 mph , 30 km/h
Temperature: 48°F , 9°C
Wind Chill: 43°F , 6°C
Dew Point: 43°F , 6°C
Humidity: 82%
Barometer: 29.78 inHg , 1008.5 hPa
Summary: Light rain
Clouds: Overcast
Visibility: 8 miles , 13 km
Cloud details: Overcast 2000 ft
2014/11/01 11:54 KBWI 011154Z 01010G16KT 8SM -RA OVC020 09/06 A2978 RMK AO2 RAB47 SLP086 P0000 60008 70008 T00940056 10094 20078 53009 $
KDMW - Carroll Cnty, Maryland, USA
Distance from station: WNW 30mi, 48km
Updated: Sat, 01-Nov-2014 8:40am EDT
Overcast
Overcast
 Wind from N
Wind: N 13 mph , 20 km/h, Gust: 18 mph , 30 km/h
Temperature: 45°F , 7°C
Wind Chill: 39°F , 4°C
Dew Point: 41°F , 5°C
Humidity: 87%
Barometer: 29.83 inHg , 1010.2 hPa
Clouds: Overcast
Visibility: 10 miles , 16 km
Cloud details: Overcast 1700 ft
2014/11/01 12:40 KDMW 011240Z AUTO 01011G16KT 10SM OVC017 07/05 A2983 RMK AO2
 
KNAK - Annapolis/Naval, Maryland, USA
Distance from station: S 30mi, 48km
Updated: Sat, 01-Nov-2014 7:54am EDT
Light rain, Overcast
Light rain, Overcast
 Wind from N
Wind: N 13 mph , 20 km/h, Gust: 23 mph , 37 km/h
Temperature: 50°F , 10°C
Wind Chill: 45°F , 7°C
Dew Point: 45°F , 7°C
Humidity: 82%
Barometer: 29.77 inHg , 1008.1 hPa
Summary: Light rain
Clouds: Overcast
Visibility: 5 miles , 8 km
Cloud details: Overcast 2300 ft
2014/11/01 11:54 KNAK 011154Z AUTO 36011G20KT 5SM -RA OVC023 10/07 A2977 RMK AO2 RAB37 SLP083 P0001 60001 70001 T01000072 10106 20100 51011
KW29 - Stevensville, Maryland, USA
Distance from station: SSE 31mi, 50km
Updated: Sat, 01-Nov-2014 8:38am EDT
Rain
Rain
 Wind from N
Wind: N 14 mph , 22 km/h, Gust: 20 mph , 31 km/h
Temperature: 46°F , 8°C
Wind Chill: 40°F , 4°C
Dew Point: 45°F , 7°C
Humidity: 93%
Barometer: 29.78 inHg , 1008.5 hPa
Summary: Rain
Visibility: 5 miles , 8 km
2014/11/01 12:38 KW29 011238Z AUTO 01012G17KT 5SM RA 08/07 A2978 RMK AO1
 
KCGS - College Park, Maryland, USA
Distance from station: SW 38mi, 61km
Updated: Sat, 01-Nov-2014 8:35am EDT
Overcast
Overcast
 Wind from N
Wind: N 8 mph , 13 km/h
Temperature: 50°F , 10°C
Wind Chill: 47°F , 8°C
Dew Point: 43°F , 6°C
Humidity: 76%
Barometer: 29.79 inHg , 1008.8 hPa
Clouds: Overcast
Visibility: 10 miles , 16 km
Cloud details: Mostly cloudy 2200 ft
Mostly cloudy 3300 ft
Overcast 8000 ft
2014/11/01 12:35 KCGS 011235Z AUTO 35007KT 10SM BKN022 BKN033 OVC080 10/06 A2979 RMK AO1
KGAI - Gaithersburg, Maryland, USA
Distance from station: WSW 40mi, 65km
Updated: Sat, 01-Nov-2014 8:35am EDT
Overcast
Overcast
 Wind from N
Wind: N 6 mph , 9 km/h
Temperature: 46°F , 8°C
Wind Chill: 43°F , 6°C
Dew Point: 39°F , 4°C
Humidity: 76%
Barometer: 29.85 inHg , 1010.8 hPa
Clouds: Overcast
Visibility: 10 miles , 16 km
Cloud details: Overcast 1700 ft
2014/11/01 12:35 KGAI 011235Z 01005KT 10SM OVC017 08/04 A2985 RMK AO1
 
KTHV - York, Pennsylvania, USA
Distance from station: NNW 40mi, 65km
Updated: Sat, 01-Nov-2014 7:53am EDT
Overcast
Overcast
 Wind from N
Wind: N 9 mph , 15 km/h
Temperature: 46°F , 8°C
Wind Chill: 41°F , 5°C
Dew Point: 41°F , 5°C
Humidity: 82%
Barometer: 29.84 inHg , 1010.5 hPa
Clouds: Overcast
Visibility: 10 miles , 16 km
Cloud details: Overcast 2200 ft
2014/11/01 11:53 KTHV 011153Z AUTO 35008KT 10SM OVC022 08/05 A2984 RMK AO2 SLP109 60001 70001 T00780050 10083 20072 53012
KFDK - Frederick, Maryland, USA
Distance from station: W 47mi, 75km
Updated: Sat, 01-Nov-2014 8:45am EDT
Overcast
Overcast
 Wind from NNE
Wind: NNE 17 mph , 28 km/h
Temperature: 52°F , 11°C
Dew Point: 41°F , 5°C
Humidity: 67%
Barometer: 29.87 inHg , 1011.5 hPa
Clouds: Overcast
Visibility: 10 miles , 16 km
Cloud details: Overcast 2300 ft
2014/11/01 12:45 KFDK 011245Z 02015KT 10SM OVC023 11/05 A2987
 
KESN - Easton/Newnam, Maryland, USA
Distance from station: SSE 48mi, 78km
Updated: Sat, 01-Nov-2014 8:50am EDT
Overcast
Overcast
 Wind from NNE
Wind: NNE 14 mph , 22 km/h, Gust: 24 mph , 39 km/h
Temperature: 48°F , 9°C
Wind Chill: 42°F , 6°C
Dew Point: 48°F , 9°C
Humidity: 100%
Barometer: 29.80 inHg , 1009.1 hPa
Clouds: Overcast
Visibility: 10 miles , 16 km
Cloud details: Overcast 1100 ft
2014/11/01 12:50 KESN 011250Z 02012G21KT 10SM OVC011 09/09 A2980
KDCA - Washington/Natl, Washington D.c., USA
Distance from station: SW 49mi, 79km
Updated: Sat, 01-Nov-2014 7:52am EDT
Overcast
Overcast
 Wind from N
Wind: N 14 mph , 22 km/h
Temperature: 52°F , 11°C
Dew Point: 39°F , 4°C
Humidity: 62%
Barometer: 29.79 inHg , 1008.8 hPa
Clouds: Overcast
Visibility: 10 miles , 16 km
Cloud details: Overcast 2100 ft
2014/11/01 11:52 KDCA 011152Z 36012KT 10SM OVC021 11/04 A2979 RMK AO2 SLP089 T01060044 10111 20100 51008
 
KLNS - Lancaster, Pennsylvania, USA
Distance from station: N 49mi, 79km
Updated: Sat, 01-Nov-2014 8:41am EDT
Overcast
Overcast
 Wind from NNE
Wind: NNE 15 mph , 24 km/h
Temperature: 46°F , 8°C
Wind Chill: 40°F , 4°C
Dew Point: 37°F , 3°C
Humidity: 71%
Barometer: 29.84 inHg , 1010.5 hPa
Clouds: Overcast
Visibility: 10 miles , 16 km
Cloud details: Partly cloudy 2700 ft
Overcast 6500 ft
2014/11/01 12:41 KLNS 011241Z 03013KT 10SM SCT027 OVC065 08/03 A2984 RMK AO2 T00780033
KILG - Wilmington, Delaware, USA
Distance from station: ENE 50mi, 81km
Updated: Sat, 01-Nov-2014 7:51am EDT
Light rain, Overcast
Light rain, Overcast
 Wind from NNE
Wind: NNE 18 mph , 30 km/h, Gust: 30 mph , 48 km/h
Temperature: 45°F , 7°C
Wind Chill: 37°F , 3°C
Dew Point: 43°F , 6°C
Humidity: 93%
Barometer: 29.80 inHg , 1009.1 hPa
Summary: Light rain
Clouds: Overcast
Visibility: 10 miles , 16 km
Cloud details: Few Clouds 1700 ft
Partly cloudy 2500 ft
Overcast 5500 ft
2014/11/01 11:51 KILG 011151Z 02016G26KT 10SM -RA FEW017 SCT025 OVC055 07/06 A2980 RMK AO2 PK WND 02026/1145 SLP089 P0006 60018 70018 T00720056 10106 20072 51012